createdAt,value
2017-12-31T00:01:12.323Z,99380.61
2017-12-31T00:03:39.722Z,99385.52
2017-12-31T00:06:07.122Z,99390.67
2017-12-31T00:08:34.586Z,99394.83
2017-12-31T00:11:02.044Z,99390.08
2017-12-31T00:13:29.446Z,99404.22
2017-12-31T00:15:56.862Z,99408.41
2017-12-31T00:18:24.272Z,99419.02
2017-12-31T00:20:51.674Z,99425.50
2017-12-31T00:23:19.087Z,99429.22
2017-12-31T00:25:46.511Z,99449.92
2017-12-31T00:28:13.997Z,99449.75
2017-12-31T00:30:41.397Z,99447.63
2017-12-31T00:33:08.796Z,99452.38
2017-12-31T00:35:36.311Z,99455.48
2017-12-31T00:38:03.723Z,99455.66
2017-12-31T00:40:31.127Z,99457.92
2017-12-31T00:42:58.583Z,99463.39
2017-12-31T00:45:25.986Z,99463.32
2017-12-31T00:47:53.386Z,99460.42
2017-12-31T00:50:20.836Z,99466.87
2017-12-31T00:52:48.250Z,99478.77
2017-12-31T00:55:15.764Z,99484.64
2017-12-31T00:57:43.170Z,99486.77
2017-12-31T01:00:10.607Z,99500.72
2017-12-31T01:02:38.012Z,99509.53
2017-12-31T01:05:05.415Z,99519.84
2017-12-31T01:07:32.932Z,99525.61
2017-12-31T01:10:00.326Z,99533.81
2017-12-31T01:12:27.738Z,99545.56
2017-12-31T01:14:55.146Z,99548.64
2017-12-31T01:17:22.601Z,99557.65
2017-12-31T01:19:50.027Z,99561.90
2017-12-31T01:22:17.443Z,99562.95
2017-12-31T01:24:44.847Z,99575.37
2017-12-31T01:27:12.282Z,99586.09
2017-12-31T01:29:39.684Z,99572.23
2017-12-31T01:32:07.091Z,99599.61
2017-12-31T01:34:34.549Z,99583.54
2017-12-31T01:37:01.968Z,99593.65
2017-12-31T01:39:29.372Z,99606.13
2017-12-31T01:41:56.819Z,99609.20
2017-12-31T01:44:24.219Z,99602.21
2017-12-31T01:46:51.720Z,99610.68
2017-12-31T01:49:19.146Z,99633.77
2017-12-31T01:51:47.409Z,99638.66
2017-12-31T01:54:14.807Z,99640.19
2017-12-31T01:56:42.247Z,99644.27
2017-12-31T01:59:09.653Z,99645.03
2017-12-31T02:01:37.063Z,99647.73
2017-12-31T02:04:04.489Z,99643.14
2017-12-31T02:06:31.892Z,99644.84
2017-12-31T02:08:59.290Z,99657.95
2017-12-31T02:11:26.813Z,99654.62
2017-12-31T02:13:54.216Z,99663.70
2017-12-31T02:16:21.610Z,99664.90
2017-12-31T02:18:49.040Z,99658.48
2017-12-31T02:21:16.446Z,99676.91
2017-12-31T02:23:43.851Z,99687.48
2017-12-31T02:26:11.275Z,99685.19
2017-12-31T02:28:38.673Z,99701.42
2017-12-31T02:31:06.078Z,99696.06
2017-12-31T02:33:33.615Z,99704.30
2017-12-31T02:36:01.015Z,99689.04
2017-12-31T02:38:28.423Z,99691.23
2017-12-31T02:40:55.848Z,99697.03
2017-12-31T02:43:23.245Z,99709.69
2017-12-31T02:45:50.650Z,99716.61
2017-12-31T02:48:18.082Z,99716.14
2017-12-31T02:50:45.524Z,99712.28
2017-12-31T02:53:12.931Z,99720.55
2017-12-31T02:55:40.355Z,99714.45
2017-12-31T02:58:07.790Z,99722.61
2017-12-31T03:00:35.190Z,99722.36
2017-12-31T03:03:02.615Z,99730.67
2017-12-31T03:05:30.055Z,99725.16
2017-12-31T03:07:57.520Z,99729.80
2017-12-31T03:10:24.943Z,99737.48
2017-12-31T03:12:52.431Z,99752.46
2017-12-31T03:15:19.845Z,99759.02
2017-12-31T03:17:47.270Z,99762.30
2017-12-31T03:20:14.687Z,99765.69
2017-12-31T03:22:42.091Z,99762.88
2017-12-31T03:25:09.519Z,99757.83
2017-12-31T03:27:36.914Z,99763.09
2017-12-31T03:30:04.328Z,99772.93
2017-12-31T03:32:31.766Z,99769.89
2017-12-31T03:34:59.247Z,99783.23
2017-12-31T03:37:26.702Z,99775.88
2017-12-31T03:39:54.136Z,99789.76
2017-12-31T03:42:21.607Z,99797.16
2017-12-31T03:44:49.010Z,99807.28
2017-12-31T03:47:16.429Z,99809.56
2017-12-31T03:49:43.828Z,99808.22
2017-12-31T03:52:11.231Z,99815.20
2017-12-31T03:54:38.682Z,99827.09
2017-12-31T03:57:06.086Z,99828.34
2017-12-31T03:59:33.495Z,99841.48
2017-12-31T04:02:00.921Z,99826.46
2017-12-31T04:04:28.337Z,99826.93
2017-12-31T04:09:29.592Z,99834.49
2017-12-31T04:11:57.031Z,99845.55
2017-12-31T04:14:24.491Z,99843.20
2017-12-31T04:16:51.953Z,99832.58
2017-12-31T04:19:19.385Z,99839.36
2017-12-31T04:21:46.787Z,99840.84
2017-12-31T04:24:14.202Z,99851.07
2017-12-31T04:26:41.623Z,99846.62
2017-12-31T04:29:09.115Z,99850.82
2017-12-31T04:31:36.580Z,99854.45
2017-12-31T04:34:04.013Z,99858.63
2017-12-31T04:36:31.427Z,99862.87
2017-12-31T04:38:58.835Z,99873.72
2017-12-31T04:41:26.311Z,99874.94
2017-12-31T04:43:53.716Z,99881.00
2017-12-31T04:46:21.134Z,99880.65
2017-12-31T04:48:48.549Z,99884.20
2017-12-31T04:51:15.953Z,99884.06
2017-12-31T04:53:43.367Z,99878.09
2017-12-31T04:56:10.849Z,99874.25
2017-12-31T04:58:38.259Z,99872.66
2017-12-31T05:01:05.760Z,99868.89
2017-12-31T05:03:33.162Z,99871.26
2017-12-31T05:06:00.571Z,99885.47
2017-12-31T05:08:28.016Z,99890.58
2017-12-31T05:10:55.416Z,99899.76
2017-12-31T05:13:22.818Z,99904.13
2017-12-31T05:15:50.245Z,99905.97
2017-12-31T05:18:17.663Z,99912.56
2017-12-31T05:20:45.086Z,99898.37
2017-12-31T05:23:12.514Z,99904.55
2017-12-31T05:25:39.928Z,99897.77
2017-12-31T05:28:07.360Z,99899.08
2017-12-31T05:30:34.755Z,99896.30
2017-12-31T05:33:02.163Z,99891.94
2017-12-31T05:35:29.746Z,99896.13
2017-12-31T05:37:57.160Z,99887.50
2017-12-31T05:40:24.558Z,99898.45
2017-12-31T05:42:51.994Z,99900.11
2017-12-31T05:45:19.478Z,99909.67
2017-12-31T05:47:46.886Z,99906.55
2017-12-31T05:50:14.308Z,99918.26
2017-12-31T05:55:32.222Z,99926.34
2017-12-31T05:57:59.614Z,99919.61
2017-12-31T06:00:27.050Z,99925.31
2017-12-31T06:02:54.517Z,99929.30
2017-12-31T06:05:21.940Z,99932.39
2017-12-31T06:07:49.347Z,99931.41
2017-12-31T06:10:16.803Z,99933.16
2017-12-31T06:12:44.219Z,99932.25
2017-12-31T06:15:11.639Z,99928.20
2017-12-31T06:17:39.087Z,99929.30
2017-12-31T06:20:06.504Z,99929.02
2017-12-31T06:22:33.935Z,99930.38
2017-12-31T06:25:01.373Z,99931.36
2017-12-31T06:27:28.799Z,99930.27
2017-12-31T06:29:56.223Z,99927.62
2017-12-31T06:32:23.659Z,99926.69
2017-12-31T06:34:51.096Z,99931.06
2017-12-31T06:37:18.513Z,99932.94
2017-12-31T06:39:45.998Z,99941.95
2017-12-31T06:42:13.434Z,99942.77
2017-12-31T06:44:40.860Z,99940.19
2017-12-31T06:47:08.297Z,99940.72
2017-12-31T06:49:35.715Z,99948.39
2017-12-31T06:52:03.165Z,99943.90
2017-12-31T06:54:30.641Z,99946.02
2017-12-31T06:56:58.025Z,99941.32
2017-12-31T06:59:25.440Z,99934.58
2017-12-31T07:01:52.879Z,99929.55
2017-12-31T07:04:20.297Z,99933.58
2017-12-31T07:06:47.719Z,99939.33
2017-12-31T07:09:15.176Z,99940.63
2017-12-31T07:11:42.591Z,99939.55
2017-12-31T07:14:10.007Z,99933.14
2017-12-31T07:16:37.448Z,99940.89
2017-12-31T07:19:04.884Z,99947.50
2017-12-31T07:21:32.301Z,99938.44
2017-12-31T07:23:59.720Z,99948.88
2017-12-31T07:26:27.159Z,99941.72
2017-12-31T07:28:54.590Z,99946.98
2017-12-31T07:31:22.008Z,99953.19
2017-12-31T07:33:49.471Z,99948.52
2017-12-31T07:36:16.891Z,99954.00
2017-12-31T07:38:44.331Z,99952.25
2017-12-31T07:41:11.782Z,99953.38
2017-12-31T07:43:39.203Z,99950.77
2017-12-31T07:46:06.667Z,99947.73
2017-12-31T07:48:34.075Z,99942.42
2017-12-31T07:51:01.506Z,99949.11
2017-12-31T07:53:28.960Z,99951.05
2017-12-31T07:55:56.424Z,99954.35
2017-12-31T07:58:23.839Z,99952.79
2017-12-31T08:00:51.318Z,99949.83
2017-12-31T08:03:18.750Z,99958.19
2017-12-31T08:05:46.215Z,99960.90
2017-12-31T08:08:13.673Z,99961.29
2017-12-31T08:10:41.114Z,99961.19
2017-12-31T08:13:08.545Z,99962.80
2017-12-31T08:15:36.664Z,99956.94
2017-12-31T08:18:04.068Z,99958.20
2017-12-31T08:20:31.475Z,99949.30
2017-12-31T08:22:58.911Z,99947.90
2017-12-31T08:25:26.351Z,99940.48
2017-12-31T08:27:53.795Z,99947.00
2017-12-31T08:30:21.227Z,99942.27
2017-12-31T08:32:48.660Z,99934.31
2017-12-31T08:35:16.127Z,99940.12
2017-12-31T08:37:43.543Z,99937.89
2017-12-31T08:40:10.964Z,99941.25
2017-12-31T08:42:38.395Z,99940.44
2017-12-31T08:45:05.813Z,99942.33
2017-12-31T08:47:33.268Z,99944.94
2017-12-31T08:50:00.767Z,99942.84
2017-12-31T08:52:28.179Z,99940.67
2017-12-31T08:54:55.688Z,99940.05
2017-12-31T08:57:23.114Z,99937.76
2017-12-31T08:59:50.531Z,99935.66
2017-12-31T09:02:17.939Z,99941.45
2017-12-31T09:04:45.457Z,99934.30
2017-12-31T09:07:12.975Z,99931.95
2017-12-31T09:09:40.388Z,99928.03
2017-12-31T09:12:07.870Z,99928.31
2017-12-31T09:14:35.266Z,99939.52
2017-12-31T09:17:02.675Z,99939.05
2017-12-31T09:19:30.145Z,99934.37
2017-12-31T09:21:57.580Z,99929.59
2017-12-31T09:24:25.067Z,99928.17
2017-12-31T09:26:52.484Z,99921.91
2017-12-31T09:29:19.910Z,99922.40
2017-12-31T09:34:39.144Z,99920.63
2017-12-31T09:37:06.627Z,99917.94
2017-12-31T09:39:34.040Z,99905.14
2017-12-31T09:42:01.539Z,99898.31
2017-12-31T09:44:29.026Z,99893.01
2017-12-31T09:46:56.431Z,99894.48
2017-12-31T09:49:23.869Z,99883.95
2017-12-31T09:51:51.264Z,99876.33
2017-12-31T09:54:18.671Z,99868.18
2017-12-31T09:56:46.202Z,99871.44
2017-12-31T09:59:13.619Z,99865.57
2017-12-31T10:01:41.036Z,99869.27
2017-12-31T10:04:08.864Z,99866.23
2017-12-31T10:06:36.271Z,99858.36
2017-12-31T10:09:03.722Z,99852.34
2017-12-31T10:11:31.139Z,99848.61
2017-12-31T10:13:58.604Z,99844.22
2017-12-31T10:16:26.016Z,99838.53
2017-12-31T10:18:53.624Z,99833.08
2017-12-31T10:21:21.027Z,99826.64
2017-12-31T10:23:48.453Z,99829.84
2017-12-31T10:26:15.911Z,99822.29
2017-12-31T10:28:43.383Z,99820.91
2017-12-31T10:31:10.792Z,99817.89
2017-12-31T10:33:38.249Z,99816.20
2017-12-31T10:36:05.667Z,99814.50
2017-12-31T10:38:33.087Z,99811.27
2017-12-31T10:41:00.528Z,99805.11
2017-12-31T10:43:27.939Z,99808.22
2017-12-31T10:45:55.348Z,99800.78
2017-12-31T10:48:22.811Z,99798.80
2017-12-31T10:50:50.228Z,99797.78
2017-12-31T10:53:17.671Z,99794.52
2017-12-31T10:55:45.087Z,99788.45
2017-12-31T10:58:12.526Z,99780.67
2017-12-31T11:00:39.963Z,99784.05
2017-12-31T11:03:07.386Z,99776.73
2017-12-31T11:05:34.812Z,99768.72
2017-12-31T11:08:02.242Z,99772.64
2017-12-31T11:10:29.654Z,99762.98
2017-12-31T11:12:57.063Z,99763.39
2017-12-31T11:15:24.503Z,99768.55
2017-12-31T11:17:51.942Z,99762.23
2017-12-31T11:20:19.378Z,99759.08
2017-12-31T11:22:46.811Z,99756.42
2017-12-31T11:25:14.283Z,99753.17
2017-12-31T11:27:41.719Z,99751.04
2017-12-31T11:30:09.139Z,99749.41
2017-12-31T11:32:36.600Z,99748.95
2017-12-31T11:35:04.025Z,99745.36
2017-12-31T11:37:31.892Z,99749.11
2017-12-31T11:39:59.327Z,99744.61
2017-12-31T11:42:26.765Z,99742.69
2017-12-31T11:44:54.162Z,99743.14
2017-12-31T11:47:21.641Z,99738.73
2017-12-31T11:49:49.146Z,99733.73
2017-12-31T11:52:16.551Z,99740.17
2017-12-31T11:54:43.989Z,99735.92
2017-12-31T11:57:11.398Z,99736.09
2017-12-31T11:59:38.816Z,99729.66
2017-12-31T12:02:06.331Z,99732.84
2017-12-31T12:04:33.744Z,99728.45
2017-12-31T12:07:01.250Z,99730.06
2017-12-31T12:09:28.676Z,99721.78
2017-12-31T12:11:56.103Z,99723.88
2017-12-31T12:14:23.532Z,99726.25
2017-12-31T12:16:50.959Z,99717.50
2017-12-31T12:19:18.355Z,99711.75
2017-12-31T12:21:45.875Z,99703.09
2017-12-31T12:24:13.232Z,99706.50
2017-12-31T12:26:40.635Z,99701.22
2017-12-31T12:29:08.059Z,99704.86
2017-12-31T12:31:35.517Z,99695.30
2017-12-31T12:34:02.945Z,99697.02
2017-12-31T12:36:30.348Z,99692.74
2017-12-31T12:38:57.869Z,99690.20
2017-12-31T12:41:25.340Z,99687.73
2017-12-31T12:43:52.791Z,99683.73
2017-12-31T12:46:20.224Z,99681.39
2017-12-31T12:48:47.639Z,99681.85
2017-12-31T12:51:15.043Z,99682.96
2017-12-31T12:53:42.462Z,99677.78
2017-12-31T12:56:09.879Z,99678.88
2017-12-31T12:58:37.316Z,99677.62
2017-12-31T13:01:04.720Z,99670.06
2017-12-31T13:03:32.139Z,99673.07
2017-12-31T13:05:59.634Z,99673.17
2017-12-31T13:08:27.064Z,99674.83
2017-12-31T13:10:54.509Z,99673.77
2017-12-31T13:13:21.959Z,99668.67
2017-12-31T13:15:49.373Z,99673.73
2017-12-31T13:18:16.782Z,99660.22
2017-12-31T13:20:44.230Z,99663.80
2017-12-31T13:23:11.625Z,99666.69
2017-12-31T13:25:39.041Z,99663.19
2017-12-31T13:28:06.478Z,99666.32
2017-12-31T13:30:33.890Z,99659.97
2017-12-31T13:33:01.418Z,99651.47
2017-12-31T13:35:28.854Z,99653.66
2017-12-31T13:37:56.268Z,99649.05
2017-12-31T13:40:23.693Z,99647.40
2017-12-31T13:42:51.159Z,99644.56
2017-12-31T13:45:18.596Z,99640.58
2017-12-31T13:47:45.994Z,99640.97
2017-12-31T13:50:13.439Z,99637.71
2017-12-31T13:52:40.882Z,99636.73
2017-12-31T13:55:08.299Z,99637.58
2017-12-31T13:57:35.734Z,99630.02
2017-12-31T14:00:03.253Z,99637.89
2017-12-31T14:02:30.677Z,99628.98
2017-12-31T14:04:58.118Z,99632.41
2017-12-31T14:07:25.528Z,99628.34
2017-12-31T14:09:52.933Z,99637.27
2017-12-31T14:12:20.417Z,99637.66
2017-12-31T14:14:47.831Z,99643.73
2017-12-31T14:17:15.246Z,99639.55
2017-12-31T14:19:42.685Z,99636.67
2017-12-31T14:22:10.086Z,99628.27
2017-12-31T14:24:37.528Z,99636.53
2017-12-31T14:27:04.984Z,99636.97
2017-12-31T14:29:32.390Z,99625.48
2017-12-31T14:31:59.794Z,99634.72
2017-12-31T14:34:27.239Z,99636.19
2017-12-31T14:36:54.652Z,99634.83
2017-12-31T14:39:22.055Z,99629.93
2017-12-31T14:41:49.483Z,99623.52
2017-12-31T14:44:16.967Z,99622.30
2017-12-31T14:46:44.370Z,99624.61
2017-12-31T14:49:11.816Z,99621.62
2017-12-31T14:51:39.224Z,99620.00
2017-12-31T14:54:06.653Z,99624.72
2017-12-31T14:56:34.082Z,99619.82
2017-12-31T14:59:01.490Z,99616.31
2017-12-31T15:01:28.917Z,99617.97
2017-12-31T15:03:56.407Z,99611.34
2017-12-31T15:06:23.847Z,99622.71
2017-12-31T15:08:51.320Z,99620.16
2017-12-31T15:11:18.747Z,99619.91
2017-12-31T15:13:46.365Z,99622.25
2017-12-31T15:16:13.776Z,99622.81
2017-12-31T15:18:41.186Z,99619.08
2017-12-31T15:21:08.616Z,99630.08
2017-12-31T15:23:36.032Z,99626.28
2017-12-31T15:26:03.441Z,99621.26
2017-12-31T15:28:30.871Z,99618.41
2017-12-31T15:30:58.290Z,99616.55
2017-12-31T15:33:25.808Z,99610.98
2017-12-31T15:35:53.239Z,99611.78
2017-12-31T15:38:20.643Z,99610.28
2017-12-31T15:40:48.051Z,99609.63
2017-12-31T15:43:15.502Z,99606.52
2017-12-31T15:45:42.903Z,99600.26
2017-12-31T15:48:10.421Z,99598.61
2017-12-31T15:50:37.842Z,99598.09
2017-12-31T15:53:05.536Z,99603.42
2017-12-31T15:55:33.021Z,99618.03
2017-12-31T15:58:00.455Z,99614.79
2017-12-31T16:00:27.929Z,99615.70
2017-12-31T16:02:55.367Z,99612.47
2017-12-31T16:05:22.794Z,99609.83
2017-12-31T16:07:50.206Z,99608.66
2017-12-31T16:10:17.613Z,99599.73
2017-12-31T16:12:45.052Z,99593.81
2017-12-31T16:15:12.459Z,99584.41
2017-12-31T16:17:39.867Z,99579.52
2017-12-31T16:20:07.320Z,99577.31
2017-12-31T16:22:34.720Z,99562.16
2017-12-31T16:25:02.191Z,99565.58
2017-12-31T16:27:29.624Z,99560.95
2017-12-31T16:29:57.096Z,99563.44
2017-12-31T16:32:24.535Z,99562.88
2017-12-31T16:34:51.947Z,99567.36
2017-12-31T16:37:19.505Z,99561.63
2017-12-31T16:39:46.897Z,99551.47
2017-12-31T16:42:14.335Z,99555.79
2017-12-31T16:44:41.740Z,99554.20
2017-12-31T16:47:09.190Z,99560.81
2017-12-31T16:49:36.615Z,99565.16
2017-12-31T16:52:04.026Z,99568.86
2017-12-31T16:54:31.455Z,99562.73
2017-12-31T16:56:58.908Z,99560.37
2017-12-31T16:59:26.318Z,99552.80
2017-12-31T17:01:53.756Z,99546.85
2017-12-31T17:04:21.190Z,99552.30
2017-12-31T17:06:48.601Z,99550.20
2017-12-31T17:09:16.023Z,99553.08
2017-12-31T17:11:43.445Z,99556.89
2017-12-31T17:14:10.862Z,99570.47
2017-12-31T17:16:38.290Z,99569.94
2017-12-31T17:19:05.713Z,99561.66
2017-12-31T17:21:33.188Z,99561.66
2017-12-31T17:24:00.734Z,99566.67
2017-12-31T17:26:28.155Z,99565.48
2017-12-31T17:28:55.563Z,99566.05
2017-12-31T17:31:23.014Z,99553.13
2017-12-31T17:33:50.431Z,99552.20
2017-12-31T17:36:17.846Z,99548.63
2017-12-31T17:38:45.285Z,99538.47
2017-12-31T17:41:12.743Z,99540.78
2017-12-31T17:43:40.157Z,99540.48
2017-12-31T17:46:07.583Z,99538.16
2017-12-31T17:48:35.099Z,99542.78
2017-12-31T17:51:02.514Z,99541.28
2017-12-31T17:53:30.022Z,99544.69
2017-12-31T17:55:57.433Z,99532.48
2017-12-31T17:58:24.848Z,99528.41
2017-12-31T18:00:52.274Z,99533.84
2017-12-31T18:03:19.739Z,99529.78
2017-12-31T18:05:47.310Z,99532.89
2017-12-31T18:08:14.755Z,99527.47
2017-12-31T18:10:42.175Z,99525.86
2017-12-31T18:13:09.678Z,99523.95
2017-12-31T18:15:37.124Z,99522.45
2017-12-31T18:18:04.595Z,99516.91
2017-12-31T18:20:32.008Z,99517.30
2017-12-31T18:22:59.473Z,99517.15
2017-12-31T18:25:27.089Z,99509.66
2017-12-31T18:27:54.517Z,99507.75
2017-12-31T18:30:22.057Z,99505.42
2017-12-31T18:32:49.478Z,99497.80
2017-12-31T18:35:16.974Z,99487.33
2017-12-31T18:37:44.466Z,99500.03
2017-12-31T18:40:11.957Z,99500.56
2017-12-31T18:42:39.505Z,99491.61
2017-12-31T18:45:07.087Z,99488.08
2017-12-31T18:47:34.638Z,99491.45
2017-12-31T18:50:02.094Z,99492.55
2017-12-31T18:52:29.594Z,99489.16
2017-12-31T18:54:57.007Z,99490.78
2017-12-31T18:57:24.471Z,99486.67
2017-12-31T18:59:51.979Z,99481.23
2017-12-31T19:02:19.420Z,99481.77
2017-12-31T19:04:46.858Z,99484.31
2017-12-31T19:07:14.335Z,99482.15
2017-12-31T19:09:41.735Z,99485.94
2017-12-31T19:12:09.263Z,99482.39
2017-12-31T19:14:36.772Z,99489.32
2017-12-31T19:17:04.203Z,99479.68
2017-12-31T19:19:31.647Z,99476.56
2017-12-31T19:21:59.105Z,99475.91
2017-12-31T19:24:26.538Z,99480.07
2017-12-31T19:26:53.996Z,99477.63
2017-12-31T19:29:21.474Z,99468.77
2017-12-31T19:31:48.919Z,99470.36
2017-12-31T19:34:16.380Z,99467.53
2017-12-31T19:36:43.831Z,99462.61
2017-12-31T19:39:11.255Z,99463.84
2017-12-31T19:41:38.694Z,99465.70
2017-12-31T19:44:06.118Z,99468.27
2017-12-31T19:46:33.543Z,99465.00
2017-12-31T19:49:01.021Z,99450.76
2017-12-31T19:51:28.447Z,99450.11
2017-12-31T19:53:55.918Z,99448.05
2017-12-31T19:56:23.376Z,99452.11
2017-12-31T19:58:50.803Z,99458.08
2017-12-31T20:01:18.231Z,99467.17
2017-12-31T20:03:45.684Z,99459.20
2017-12-31T20:06:13.110Z,99468.00
2017-12-31T20:08:40.536Z,99458.11
2017-12-31T20:11:07.971Z,99452.16
2017-12-31T20:13:35.392Z,99450.14
2017-12-31T20:16:02.838Z,99452.44
2017-12-31T20:18:30.271Z,99452.55
2017-12-31T20:20:57.707Z,99446.84
2017-12-31T20:23:25.123Z,99453.75
2017-12-31T20:25:52.588Z,99444.91
2017-12-31T20:28:20.025Z,99448.95
2017-12-31T20:30:47.449Z,99447.47
2017-12-31T20:33:14.889Z,99444.92
2017-12-31T20:35:42.469Z,99441.95
2017-12-31T20:38:09.900Z,99441.68
2017-12-31T20:40:37.346Z,99441.69
2017-12-31T20:43:04.798Z,99440.80
2017-12-31T20:45:32.205Z,99433.34
2017-12-31T20:47:59.642Z,99437.16
2017-12-31T20:50:27.073Z,99436.06
2017-12-31T20:52:54.501Z,99433.08
2017-12-31T20:55:21.959Z,99433.47
2017-12-31T20:57:49.389Z,99433.88
2017-12-31T21:02:50.748Z,99405.69
2017-12-31T21:05:18.167Z,99422.90
2017-12-31T21:07:45.595Z,99409.64
2017-12-31T21:10:13.058Z,99402.16
2017-12-31T21:12:40.467Z,99393.09
2017-12-31T21:15:07.895Z,99404.63
2017-12-31T21:17:35.392Z,99406.53
2017-12-31T21:20:02.815Z,99406.81
2017-12-31T21:22:30.238Z,99404.11
2017-12-31T21:24:57.687Z,99396.52
2017-12-31T21:27:25.128Z,99395.02
2017-12-31T21:29:52.547Z,99397.18
2017-12-31T21:32:19.984Z,99390.95
2017-12-31T21:34:47.402Z,99394.45
2017-12-31T21:37:14.847Z,99396.20
2017-12-31T21:39:42.282Z,99390.38
2017-12-31T21:42:09.711Z,99386.88
2017-12-31T21:44:37.177Z,99392.62
2017-12-31T21:47:04.602Z,99382.19
2017-12-31T21:49:32.035Z,99388.97
2017-12-31T21:51:59.624Z,99392.25
2017-12-31T21:54:27.147Z,99393.23
2017-12-31T21:56:54.556Z,99391.22
2017-12-31T21:59:22.172Z,99389.73
2017-12-31T22:01:49.589Z,99387.56
2017-12-31T22:04:17.007Z,99388.52
2017-12-31T22:06:44.452Z,99381.45
2017-12-31T22:09:11.858Z,99384.71
2017-12-31T22:11:39.285Z,99376.17
2017-12-31T22:14:06.810Z,99365.73
2017-12-31T22:16:34.236Z,99375.23
2017-12-31T22:19:01.639Z,99374.97
2017-12-31T22:21:29.112Z,99374.56
2017-12-31T22:23:56.543Z,99370.50
2017-12-31T22:26:23.973Z,99364.53
2017-12-31T22:28:51.404Z,99367.66
2017-12-31T22:31:18.828Z,99374.58
2017-12-31T22:33:46.316Z,99367.54
2017-12-31T22:36:13.815Z,99354.38
2017-12-31T22:38:41.287Z,99362.92
2017-12-31T22:41:08.712Z,99361.72
2017-12-31T22:43:36.303Z,99357.91
2017-12-31T22:46:03.754Z,99349.11
2017-12-31T22:48:31.154Z,99359.02
2017-12-31T22:50:58.566Z,99365.40
2017-12-31T22:53:26.115Z,99350.22
2017-12-31T22:55:53.583Z,99347.91
2017-12-31T22:58:21.017Z,99354.44
2017-12-31T23:00:48.499Z,99353.59
2017-12-31T23:03:15.927Z,99344.79
2017-12-31T23:05:43.361Z,99334.73
2017-12-31T23:08:10.816Z,99338.41
2017-12-31T23:10:38.243Z,99337.74
2017-12-31T23:13:05.666Z,99340.17
2017-12-31T23:15:33.099Z,99332.31
2017-12-31T23:18:00.555Z,99321.31
2017-12-31T23:20:27.975Z,99326.74
2017-12-31T23:22:55.400Z,99326.59
2017-12-31T23:25:22.954Z,99334.20
2017-12-31T23:27:50.502Z,99332.69
2017-12-31T23:30:17.928Z,99323.74
2017-12-31T23:32:45.427Z,99325.24
2017-12-31T23:35:12.895Z,99312.48
2017-12-31T23:37:40.667Z,99316.14
2017-12-31T23:40:08.100Z,99316.26
2017-12-31T23:42:35.528Z,99310.02
2017-12-31T23:45:02.967Z,99314.23
2017-12-31T23:47:30.619Z,99312.05
2017-12-31T23:49:58.032Z,99315.30
2017-12-31T23:52:25.506Z,99300.38
2017-12-31T23:54:52.935Z,99307.86
2017-12-31T23:57:20.508Z,99303.50
2017-12-31T23:59:47.924Z,99293.75
